VLG29EB LEAS-LPPR
Flight info
| Callsign | VLG29EB |
|---|---|
| Flight time | 0h 46m |
| Altitude | 31000 |
| Route | KUVAN N872 RALUS DCT BELDU DCT INKIT |
| Aircraft | A320/M-SDE3FGHIRWY/LB1 |
Departure
| Time | 2026-05-01 10:07 |
|---|---|
| Airport | Asturias Airport (LEAS) |
Arrival
| Time | 2026-05-01 10:53 |
|---|---|
| Airport | Francisco de Sá Carneiro Airport (LPPR) |
| Time | Latitude | Longitude | Altitude | Speed | Heading |
|---|---|---|---|---|---|
| 2026-05-01 09:15 | 43.55971 | -6.03108 | 426 ft | 0 kts | 245° |
| 2026-05-01 09:27 | 43.55972 | -6.03108 | 426 ft | 0 kts | 245° |
| 2026-05-01 09:37 | 43.55972 | -6.03107 | 426 ft | 0 kts | 245° |
| 2026-05-01 09:57 | 43.55971 | -6.03110 | 426 ft | 1 kts | 245° |
| 2026-05-01 09:57 | 43.55970 | -6.03112 | 417 ft | 0 kts | 245° |
| 2026-05-01 09:58 | 43.55975 | -6.03126 | 421 ft | 4 kts | 321° |
| 2026-05-01 09:58 | 43.56017 | -6.03100 | 424 ft | 10 kts | 61° |
| 2026-05-01 09:58 | 43.55995 | -6.02968 | 424 ft | 18 kts | 104° |
| 2026-05-01 09:58 | 43.56042 | -6.02875 | 421 ft | 8 kts | 88° |
| 2026-05-01 09:59 | 43.56023 | -6.02761 | 424 ft | 17 kts | 115° |
| 2026-05-01 09:59 | 43.55982 | -6.02576 | 418 ft | 24 kts | 109° |
| 2026-05-01 09:59 | 43.55959 | -6.02480 | 421 ft | 0 kts | 106° |
| 2026-05-01 10:00 | 43.55956 | -6.02463 | 424 ft | 4 kts | 106° |
| 2026-05-01 10:00 | 43.55946 | -6.02416 | 421 ft | 6 kts | 102° |
| 2026-05-01 10:00 | 43.55947 | -6.02381 | 425 ft | 0 kts | 77° |
| 2026-05-01 10:01 | 43.55949 | -6.02370 | 425 ft | 3 kts | 77° |
| 2026-05-01 10:02 | 43.55959 | -6.02326 | 426 ft | 7 kts | 65° |
| 2026-05-01 10:02 | 43.55975 | -6.02283 | 421 ft | 0 kts | 64° |
| 2026-05-01 10:05 | 43.55977 | -6.02278 | 426 ft | 2 kts | 64° |
| 2026-05-01 10:05 | 43.55994 | -6.02237 | 423 ft | 8 kts | 53° |
| 2026-05-01 10:05 | 43.56057 | -6.02229 | 416 ft | 13 kts | 321° |
| 2026-05-01 10:06 | 43.56100 | -6.02376 | 415 ft | 21 kts | 288° |
| 2026-05-01 10:06 | 43.56220 | -6.02883 | 430 ft | 92 kts | 288° |
| 2026-05-01 10:06 | 43.56495 | -6.04015 | 427 ft | 154 kts | 289° |
| 2026-05-01 10:06 | 43.56841 | -6.05430 | 1013 ft | 157 kts | 289° |
| 2026-05-01 10:07 | 43.57179 | -6.06874 | 1670 ft | 160 kts | 288° |
| 2026-05-01 10:07 | 43.57537 | -6.08417 | 2053 ft | 180 kts | 288° |
| 2026-05-01 10:07 | 43.57949 | -6.10172 | 2368 ft | 205 kts | 288° |
| 2026-05-01 10:07 | 43.58405 | -6.12119 | 2905 ft | 219 kts | 288° |
| 2026-05-01 10:08 | 43.59216 | -6.16229 | 4517 ft | 225 kts | 265° |
| 2026-05-01 10:08 | 43.58654 | -6.18169 | 5293 ft | 225 kts | 224° |
| 2026-05-01 10:08 | 43.57343 | -6.19310 | 6105 ft | 225 kts | 201° |
| 2026-05-01 10:09 | 43.55862 | -6.20004 | 6960 ft | 225 kts | 195° |
| 2026-05-01 10:09 | 43.54348 | -6.20582 | 7764 ft | 227 kts | 194° |
| 2026-05-01 10:09 | 43.52816 | -6.21158 | 8556 ft | 229 kts | 194° |
| 2026-05-01 10:09 | 43.51275 | -6.21763 | 9376 ft | 231 kts | 194° |
| 2026-05-01 10:10 | 43.49728 | -6.22394 | 10193 ft | 233 kts | 195° |
| 2026-05-01 10:10 | 43.48166 | -6.23056 | 10938 ft | 236 kts | 196° |
| 2026-05-01 10:10 | 43.44831 | -6.24055 | 11936 ft | 266 kts | 189° |
| 2026-05-01 10:11 | 43.42925 | -6.24481 | 12205 ft | 290 kts | 189° |
| 2026-05-01 10:11 | 43.40851 | -6.24943 | 12447 ft | 314 kts | 189° |
| 2026-05-01 10:11 | 43.38620 | -6.25444 | 12753 ft | 333 kts | 190° |
| 2026-05-01 10:11 | 43.36307 | -6.25968 | 13412 ft | 340 kts | 190° |
| 2026-05-01 10:12 | 43.33955 | -6.26501 | 14133 ft | 344 kts | 190° |
| 2026-05-01 10:12 | 43.31579 | -6.27040 | 14822 ft | 347 kts | 190° |
| 2026-05-01 10:12 | 43.26782 | -6.28129 | 16169 ft | 352 kts | 190° |
| 2026-05-01 10:13 | 43.24388 | -6.28671 | 16824 ft | 355 kts | 190° |
| 2026-05-01 10:13 | 43.21947 | -6.29224 | 17525 ft | 357 kts | 191° |
| 2026-05-01 10:13 | 43.19487 | -6.29785 | 18183 ft | 359 kts | 191° |
| 2026-05-01 10:14 | 43.14519 | -6.30923 | 19393 ft | 365 kts | 190° |
| 2026-05-01 10:14 | 43.12017 | -6.31566 | 19981 ft | 367 kts | 195° |
| 2026-05-01 10:14 | 43.09609 | -6.32755 | 20563 ft | 370 kts | 206° |
| 2026-05-01 10:14 | 43.07313 | -6.34369 | 21133 ft | 372 kts | 207° |
| 2026-05-01 10:15 | 43.05005 | -6.36005 | 21665 ft | 375 kts | 207° |
| 2026-05-01 10:15 | 43.02679 | -6.37652 | 22218 ft | 378 kts | 207° |
| 2026-05-01 10:15 | 43.00333 | -6.39311 | 22772 ft | 381 kts | 207° |
| 2026-05-01 10:15 | 42.97968 | -6.40986 | 23302 ft | 384 kts | 207° |
| 2026-05-01 10:16 | 42.95591 | -6.42667 | 23802 ft | 387 kts | 207° |
| 2026-05-01 10:16 | 42.93186 | -6.44366 | 24205 ft | 390 kts | 207° |
| 2026-05-01 10:16 | 42.88338 | -6.47772 | 25092 ft | 393 kts | 207° |
| 2026-05-01 10:17 | 42.85902 | -6.49478 | 25537 ft | 394 kts | 207° |
| 2026-05-01 10:17 | 42.81000 | -6.52909 | 26298 ft | 399 kts | 208° |
| 2026-05-01 10:17 | 42.78526 | -6.54644 | 26676 ft | 401 kts | 208° |
| 2026-05-01 10:18 | 42.73511 | -6.58107 | 27414 ft | 406 kts | 208° |
| 2026-05-01 10:18 | 42.70980 | -6.59838 | 27775 ft | 409 kts | 208° |
| 2026-05-01 10:18 | 42.68430 | -6.61583 | 28134 ft | 411 kts | 208° |
| 2026-05-01 10:19 | 42.65872 | -6.63337 | 28483 ft | 413 kts | 208° |
| 2026-05-01 10:19 | 42.63293 | -6.65103 | 28823 ft | 415 kts | 208° |
| 2026-05-01 10:19 | 42.60705 | -6.66875 | 29091 ft | 418 kts | 208° |
| 2026-05-01 10:20 | 42.55610 | -6.70348 | 29147 ft | 403 kts | 208° |
| 2026-05-01 10:20 | 42.53144 | -6.72026 | 29153 ft | 401 kts | 208° |
| 2026-05-01 10:20 | 42.48163 | -6.75419 | 29151 ft | 400 kts | 208° |
| 2026-05-01 10:21 | 42.40702 | -6.80494 | 29148 ft | 400 kts | 208° |
| 2026-05-01 10:22 | 42.33234 | -6.85560 | 29172 ft | 399 kts | 208° |
| 2026-05-01 10:23 | 42.25801 | -6.90592 | 29165 ft | 398 kts | 208° |
| 2026-05-01 10:23 | 42.18387 | -6.95576 | 29148 ft | 396 kts | 208° |
| 2026-05-01 10:24 | 42.08489 | -7.02023 | 29141 ft | 396 kts | 207° |
| 2026-05-01 10:25 | 41.98547 | -7.08452 | 29141 ft | 396 kts | 207° |
| 2026-05-01 10:26 | 41.96057 | -7.10071 | 28918 ft | 398 kts | 207° |
| 2026-05-01 10:26 | 41.93648 | -7.11896 | 28657 ft | 397 kts | 215° |
| 2026-05-01 10:26 | 41.89396 | -7.16587 | 28124 ft | 394 kts | 221° |
| 2026-05-01 10:27 | 41.85252 | -7.21373 | 27606 ft | 392 kts | 221° |
| 2026-05-01 10:27 | 41.81137 | -7.26109 | 27090 ft | 387 kts | 221° |
| 2026-05-01 10:28 | 41.79097 | -7.28451 | 26842 ft | 386 kts | 221° |
| 2026-05-01 10:28 | 41.75037 | -7.33118 | 26335 ft | 383 kts | 221° |
| 2026-05-01 10:28 | 41.73017 | -7.35439 | 26088 ft | 382 kts | 221° |
| 2026-05-01 10:29 | 41.69013 | -7.40025 | 25603 ft | 380 kts | 221° |
| 2026-05-01 10:29 | 41.67009 | -7.42317 | 25364 ft | 379 kts | 221° |
| 2026-05-01 10:30 | 41.63013 | -7.46883 | 25162 ft | 377 kts | 221° |
| 2026-05-01 10:30 | 41.59023 | -7.51443 | 25166 ft | 377 kts | 221° |
| 2026-05-01 10:31 | 41.55024 | -7.55996 | 25167 ft | 377 kts | 221° |
| 2026-05-01 10:31 | 41.51025 | -7.60539 | 25169 ft | 378 kts | 221° |
| 2026-05-01 10:32 | 41.47012 | -7.65092 | 24967 ft | 381 kts | 221° |
| 2026-05-01 10:32 | 41.44966 | -7.67406 | 23642 ft | 391 kts | 221° |
| 2026-05-01 10:32 | 41.40748 | -7.72185 | 20068 ft | 404 kts | 220° |
| 2026-05-01 10:33 | 41.36455 | -7.76995 | 16967 ft | 403 kts | 216° |
| 2026-05-01 10:33 | 41.31592 | -7.80456 | 14307 ft | 392 kts | 206° |
| 2026-05-01 10:34 | 41.29148 | -7.82012 | 12936 ft | 387 kts | 206° |
| 2026-05-01 10:34 | 41.26742 | -7.83542 | 11896 ft | 376 kts | 206° |
| 2026-05-01 10:34 | 41.24465 | -7.84988 | 11488 ft | 348 kts | 206° |
| 2026-05-01 10:35 | 41.20375 | -7.87664 | 11176 ft | 319 kts | 212° |
| 2026-05-01 10:35 | 41.18642 | -7.89474 | 11169 ft | 318 kts | 224° |
| 2026-05-01 10:35 | 41.17232 | -7.91735 | 11174 ft | 319 kts | 236° |
| 2026-05-01 10:35 | 41.16198 | -7.94344 | 11172 ft | 319 kts | 244° |
| 2026-05-01 10:36 | 41.14363 | -7.99668 | 11171 ft | 319 kts | 244° |
| 2026-05-01 10:36 | 41.13402 | -8.02318 | 11173 ft | 318 kts | 237° |
| 2026-05-01 10:36 | 41.11923 | -8.04457 | 11172 ft | 316 kts | 214° |
| 2026-05-01 10:37 | 41.09942 | -8.05715 | 11178 ft | 317 kts | 200° |
| 2026-05-01 10:37 | 41.05770 | -8.07625 | 11168 ft | 317 kts | 199° |
| 2026-05-01 10:37 | 41.03685 | -8.08567 | 11175 ft | 317 kts | 199° |
| 2026-05-01 10:38 | 41.01598 | -8.09513 | 11181 ft | 317 kts | 199° |
| 2026-05-01 10:38 | 40.99512 | -8.10459 | 11178 ft | 317 kts | 199° |
| 2026-05-01 10:38 | 40.97428 | -8.11403 | 11179 ft | 317 kts | 199° |
| 2026-05-01 10:38 | 40.95334 | -8.12351 | 11179 ft | 317 kts | 199° |
| 2026-05-01 10:39 | 40.93247 | -8.13298 | 11179 ft | 317 kts | 199° |
| 2026-05-01 10:39 | 40.91159 | -8.14246 | 11179 ft | 317 kts | 199° |
| 2026-05-01 10:39 | 40.89075 | -8.15196 | 11180 ft | 317 kts | 199° |
| 2026-05-01 10:39 | 40.86988 | -8.16142 | 11128 ft | 315 kts | 199° |
| 2026-05-01 10:40 | 40.84920 | -8.17079 | 10664 ft | 313 kts | 199° |
| 2026-05-01 10:40 | 40.82918 | -8.17988 | 10465 ft | 303 kts | 199° |
| 2026-05-01 10:40 | 40.80968 | -8.18871 | 10336 ft | 289 kts | 199° |
| 2026-05-01 10:40 | 40.79108 | -8.19713 | 9884 ft | 279 kts | 199° |
| 2026-05-01 10:41 | 40.77288 | -8.20540 | 9224 ft | 275 kts | 199° |
| 2026-05-01 10:41 | 40.75493 | -8.21363 | 8557 ft | 272 kts | 199° |
| 2026-05-01 10:41 | 40.71994 | -8.23103 | 7235 ft | 266 kts | 212° |
| 2026-05-01 10:42 | 40.70709 | -8.24815 | 6609 ft | 265 kts | 239° |
| 2026-05-01 10:42 | 40.70152 | -8.27118 | 6247 ft | 267 kts | 257° |
| 2026-05-01 10:42 | 40.69837 | -8.29544 | 6174 ft | 270 kts | 259° |
| 2026-05-01 10:42 | 40.69583 | -8.32002 | 6179 ft | 272 kts | 267° |
| 2026-05-01 10:43 | 40.69909 | -8.34466 | 6195 ft | 276 kts | 291° |
| 2026-05-01 10:43 | 40.70992 | -8.36538 | 6191 ft | 279 kts | 317° |
| 2026-05-01 10:43 | 40.72614 | -8.37946 | 6184 ft | 281 kts | 329° |
| 2026-05-01 10:43 | 40.74315 | -8.39222 | 6191 ft | 281 kts | 329° |
| 2026-05-01 10:44 | 40.76020 | -8.40493 | 6191 ft | 282 kts | 329° |
| 2026-05-01 10:44 | 40.77724 | -8.41765 | 6192 ft | 281 kts | 329° |
| 2026-05-01 10:44 | 40.79427 | -8.43042 | 6191 ft | 281 kts | 329° |
| 2026-05-01 10:44 | 40.80883 | -8.44135 | 6190 ft | 281 kts | 329° |
| 2026-05-01 10:45 | 40.82560 | -8.45395 | 6179 ft | 281 kts | 329° |
| 2026-05-01 10:45 | 40.84263 | -8.46680 | 6193 ft | 282 kts | 329° |
| 2026-05-01 10:45 | 40.85967 | -8.47970 | 6183 ft | 282 kts | 329° |
| 2026-05-01 10:45 | 40.87659 | -8.49249 | 6000 ft | 279 kts | 329° |
| 2026-05-01 10:46 | 40.89343 | -8.50522 | 5571 ft | 278 kts | 329° |
| 2026-05-01 10:46 | 40.91014 | -8.51788 | 5141 ft | 277 kts | 329° |
| 2026-05-01 10:46 | 40.92679 | -8.53051 | 4715 ft | 275 kts | 329° |
| 2026-05-01 10:46 | 40.94333 | -8.54306 | 4300 ft | 273 kts | 329° |
| 2026-05-01 10:47 | 40.95976 | -8.55553 | 3890 ft | 271 kts | 329° |
| 2026-05-01 10:47 | 40.97604 | -8.56789 | 3479 ft | 269 kts | 330° |
| 2026-05-01 10:47 | 40.99202 | -8.58001 | 3258 ft | 259 kts | 330° |
| 2026-05-01 10:47 | 41.00730 | -8.59158 | 3139 ft | 247 kts | 329° |
| 2026-05-01 10:48 | 41.02183 | -8.60257 | 3027 ft | 234 kts | 330° |
| 2026-05-01 10:48 | 41.03556 | -8.61296 | 3004 ft | 223 kts | 329° |
| 2026-05-01 10:48 | 41.04894 | -8.62313 | 3004 ft | 221 kts | 330° |
| 2026-05-01 10:48 | 41.06253 | -8.63224 | 3005 ft | 214 kts | 341° |
| 2026-05-01 10:49 | 41.07664 | -8.63643 | 3006 ft | 204 kts | 349° |
| 2026-05-01 10:49 | 41.09046 | -8.64000 | 3009 ft | 201 kts | 349° |
| 2026-05-01 10:49 | 41.10418 | -8.64359 | 2892 ft | 201 kts | 348° |
| 2026-05-01 10:49 | 41.11780 | -8.64716 | 2588 ft | 198 kts | 348° |
| 2026-05-01 10:50 | 41.12672 | -8.64951 | 2395 ft | 196 kts | 348° |
| 2026-05-01 10:50 | 41.13994 | -8.65296 | 2127 ft | 190 kts | 348° |
| 2026-05-01 10:50 | 41.15617 | -8.65717 | 1807 ft | 169 kts | 348° |
| 2026-05-01 10:50 | 41.16719 | -8.66004 | 1605 ft | 153 kts | 347° |
| 2026-05-01 10:51 | 41.17405 | -8.66184 | 1456 ft | 146 kts | 346° |
| 2026-05-01 10:51 | 41.18380 | -8.66441 | 1270 ft | 141 kts | 345° |
| 2026-05-01 10:51 | 41.19325 | -8.66690 | 1079 ft | 139 kts | 346° |
| 2026-05-01 10:51 | 41.20270 | -8.66938 | 898 ft | 138 kts | 346° |
| 2026-05-01 10:52 | 41.21527 | -8.67267 | 650 ft | 137 kts | 347° |
| 2026-05-01 10:52 | 41.22143 | -8.67430 | 530 ft | 136 kts | 346° |
| 2026-05-01 10:52 | 41.23068 | -8.67659 | 332 ft | 135 kts | 348° |
| 2026-05-01 10:52 | 41.23954 | -8.67881 | 224 ft | 118 kts | 340° |
| 2026-05-01 10:53 | 41.24609 | -8.68074 | 207 ft | 72 kts | 349° |
| 2026-05-01 10:53 | 41.24955 | -8.68166 | 192 ft | 41 kts | 349° |
| 2026-05-01 10:53 | 41.25225 | -8.68131 | 181 ft | 29 kts | 20° |
| 2026-05-01 10:53 | 41.25263 | -8.68023 | 182 ft | 13 kts | 146° |
| 2026-05-01 10:54 | 41.25191 | -8.67996 | 186 ft | 8 kts | 170° |
| 2026-05-01 10:54 | 41.25150 | -8.67985 | 195 ft | 4 kts | 168° |
| 2026-05-01 10:54 | 41.25122 | -8.67977 | 193 ft | 7 kts | 168° |
| 2026-05-01 10:54 | 41.25043 | -8.67955 | 195 ft | 16 kts | 168° |
| 2026-05-01 10:55 | 41.24913 | -8.67922 | 206 ft | 21 kts | 167° |
| 2026-05-01 10:55 | 41.24771 | -8.67838 | 209 ft | 24 kts | 160° |
| 2026-05-01 10:55 | 41.24602 | -8.67786 | 214 ft | 26 kts | 168° |
| 2026-05-01 10:55 | 41.24415 | -8.67737 | 224 ft | 29 kts | 169° |
| 2026-05-01 10:56 | 41.24250 | -8.67609 | 239 ft | 28 kts | 126° |
| 2026-05-01 10:56 | 41.24107 | -8.67445 | 242 ft | 28 kts | 157° |
| 2026-05-01 10:56 | 41.23935 | -8.67464 | 240 ft | 26 kts | 218° |
| 2026-05-01 10:56 | 41.23765 | -8.67456 | 239 ft | 22 kts | 154° |
| 2026-05-01 10:57 | 41.23735 | -8.67359 | 242 ft | 6 kts | 65° |
| 2026-05-01 10:57 | 41.23751 | -8.67332 | 243 ft | 1 kts | 44° |
| 2026-05-01 10:57 | 41.23757 | -8.67323 | 244 ft | 3 kts | 47° |
| 2026-05-01 10:57 | 41.23775 | -8.67296 | 245 ft | 0 kts | 49° |
| 2026-05-01 10:58 | 41.23776 | -8.67295 | 245 ft | 0 kts | 49° |